Time;durP1;ratioP1;P1;durP2;ratioP2;P2;SDS_P1;SDS_P2;PMS_P1;PMS_P2;Temp;Humidity;BMP_temperature;BMP_pressure;BME280_temperature;BME280_humidity;BME280_pressure;Samples;Min_cycle;Max_cycle;Signal;HPM_P1;HPM_P2
2023/09/07 00:01:08;;;;;;;5.80;2.28;;;23.40;74.80;;;;;;5114005;28;20039;-59
2023/09/07 00:03:33;;;;;;;5.75;2.85;;;23.40;74.80;;;;;;5112331;28;20046;-59
2023/09/07 00:05:59;;;;;;;6.50;2.30;;;23.40;74.70;;;;;;5114584;28;20082;-59
2023/09/07 00:08:25;;;;;;;7.80;2.42;;;23.40;74.70;;;;;;5114818;28;20046;-59
2023/09/07 00:10:51;;;;;;;5.43;2.67;;;23.30;74.70;;;;;;5110831;27;20082;-59
2023/09/07 00:13:16;;;;;;;5.40;2.40;;;23.30;74.70;;;;;;5093989;28;20047;-59
2023/09/07 00:15:42;;;;;;;5.15;2.13;;;23.30;74.70;;;;;;5093809;28;20055;-59
2023/09/07 00:18:08;;;;;;;5.97;2.60;;;23.30;74.60;;;;;;5093581;28;20372;-59
2023/09/07 00:20:33;;;;;;;5.85;2.63;;;23.30;74.60;;;;;;5093509;28;20490;-59
2023/09/07 00:23:17;;;;;;;4.90;2.17;;;23.30;74.60;;;;;;5093218;28;20044;-59
2023/09/07 00:25:43;;;;;;;5.72;2.58;;;23.30;74.60;;;;;;5093433;28;20066;-59
2023/09/07 00:28:08;;;;;;;5.55;2.08;;;23.30;74.60;;;;;;5093877;28;20036;-59
2023/09/07 00:30:34;;;;;;;5.50;2.30;;;23.30;74.50;;;;;;5092476;28;20105;-59
2023/09/07 00:32:59;;;;;;;5.38;1.95;;;23.30;74.50;;;;;;5113095;28;20043;-59
2023/09/07 00:35:25;;;;;;;6.35;2.47;;;23.30;74.60;;;;;;5113964;28;20071;-59
2023/09/07 00:37:51;;;;;;;5.95;2.20;;;23.30;74.50;;;;;;5111639;28;20052;-59
2023/09/07 00:40:16;;;;;;;5.63;2.50;;;23.30;74.50;;;;;;5113919;28;20047;-59
2023/09/07 00:42:42;;;;;;;5.10;2.00;;;23.30;74.50;;;;;;5113587;28;20042;-59
2023/09/07 00:45:08;;;;;;;7.47;2.47;;;23.30;74.50;;;;;;5112685;28;20042;-59
2023/09/07 00:47:35;;;;;;;4.57;2.30;;;23.30;74.50;;;;;;5112102;28;20158;-59
2023/09/07 00:50:00;;;;;;;5.05;2.17;;;23.30;74.40;;;;;;5114046;28;20066;-59
2023/09/07 00:52:26;;;;;;;6.38;2.42;;;23.30;74.40;;;;;;5113267;28;20391;-59
2023/09/07 00:54:52;;;;;;;5.32;2.38;;;23.30;74.40;;;;;;5095637;28;20487;-59
2023/09/07 00:57:18;;;;;;;4.95;2.38;;;23.30;74.40;;;;;;5113422;28;20046;-58
2023/09/07 00:59:43;;;;;;;3.92;2.13;;;23.30;74.40;;;;;;5112635;28;20051;-59
2023/09/07 01:02:09;;;;;;;5.93;2.35;;;23.30;74.40;;;;;;5112342;28;20118;-58
2023/09/07 01:04:34;;;;;;;4.22;2.45;;;23.30;74.40;;;;;;5111858;28;20047;-59
2023/09/07 01:07:14;;;;;;;5.15;2.25;;;23.20;74.30;;;;;;5112935;28;20039;-59
2023/09/07 01:09:40;;;;;;;5.70;2.35;;;23.30;74.30;;;;;;5111891;28;20479;-59
2023/09/07 01:12:10;;;;;;;4.78;2.08;;;23.30;74.40;;;;;;5111837;28;20051;-59
2023/09/07 01:14:36;;;;;;;3.13;1.77;;;23.20;74.30;;;;;;5112264;28;20084;-59
2023/09/07 01:17:02;;;;;;;5.25;2.20;;;23.20;74.30;;;;;;5112629;28;20040;-59
2023/09/07 01:19:28;;;;;;;5.00;2.10;;;23.30;74.40;;;;;;5111311;28;20039;-59
2023/09/07 01:21:53;;;;;;;3.53;1.90;;;23.20;74.30;;;;;;5111715;28;20047;-59
2023/09/07 01:24:19;;;;;;;4.72;1.85;;;23.20;74.30;;;;;;5112168;28;20039;-59
2023/09/07 01:26:49;;;;;;;4.40;1.95;;;23.30;74.30;;;;;;5111827;28;20060;-59
2023/09/07 01:29:16;;;;;;;4.22;2.10;;;23.20;74.20;;;;;;5108668;28;20048;-59
2023/09/07 01:31:42;;;;;;;4.78;2.10;;;23.20;74.20;;;;;;5091500;28;20048;-59
2023/09/07 01:34:08;;;;;;;4.25;2.33;;;23.20;74.20;;;;;;5090962;28;20104;-59
2023/09/07 01:36:34;;;;;;;4.20;1.73;;;23.20;74.20;;;;;;5092531;28;20499;-59
2023/09/07 01:39:00;;;;;;;4.97;2.00;;;23.20;74.20;;;;;;5092724;28;20135;-59
2023/09/07 01:41:26;;;;;;;4.38;2.10;;;23.20;74.20;;;;;;5091914;28;20467;-59
2023/09/07 01:43:52;;;;;;;3.67;1.95;;;23.20;74.20;;;;;;5093646;28;20039;-59
2023/09/07 01:46:24;;;;;;;4.65;2.10;;;23.20;74.20;;;;;;5112757;28;20048;-59
2023/09/07 01:48:49;;;;;;;4.80;2.22;;;23.20;74.20;;;;;;5111789;28;20131;-59
2023/09/07 01:51:15;;;;;;;4.53;2.15;;;23.20;74.20;;;;;;5111478;28;20131;-59
2023/09/07 01:53:40;;;;;;;4.07;1.90;;;23.20;74.20;;;;;;5112689;28;20035;-59
2023/09/07 01:56:06;;;;;;;5.00;1.92;;;23.20;74.10;;;;;;5111072;28;20089;-59
2023/09/07 01:58:33;;;;;;;4.55;2.00;;;23.20;74.10;;;;;;5112885;28;20390;-59
2023/09/07 02:00:58;;;;;;;3.83;1.83;;;23.20;74.10;;;;;;5096436;28;20591;-59
2023/09/07 02:03:25;;;;;;;4.55;2.05;;;23.20;74.10;;;;;;5095941;28;20127;-59
2023/09/07 02:05:54;;;;;;;4.95;2.13;;;23.20;74.10;;;;;;5095820;28;20040;-59
2023/09/07 02:08:19;;;;;;;5.47;2.33;;;23.20;74.10;;;;;;5096049;28;20476;-59
2023/09/07 02:10:45;;;;;;;3.72;1.98;;;23.10;74.00;;;;;;5096107;28;20047;-59
2023/09/07 02:13:11;;;;;;;3.25;2.13;;;23.10;74.00;;;;;;5096382;28;20051;-59
2023/09/07 02:15:38;;;;;;;3.00;1.92;;;23.10;74.00;;;;;;5095499;28;20804;-59
2023/09/07 02:18:05;;;;;;;3.22;1.75;;;23.10;74.00;;;;;;5096536;28;20118;-59
2023/09/07 02:20:31;;;;;;;3.47;2.00;;;23.10;74.00;;;;;;5096165;28;20044;-59
2023/09/07 02:22:57;;;;;;;4.28;2.20;;;23.10;74.00;;;;;;5094229;28;20059;-59
2023/09/07 02:25:23;;;;;;;5.10;2.05;;;23.10;74.00;;;;;;5096201;28;20040;-59
2023/09/07 02:27:49;;;;;;;4.88;2.00;;;23.10;74.00;;;;;;5095889;28;20032;-58
2023/09/07 02:30:14;;;;;;;4.00;2.30;;;23.10;74.00;;;;;;5106985;28;20130;-59
2023/09/07 02:32:42;;;;;;;3.88;1.83;;;23.10;74.50;;;;;;5116117;28;20463;-59
2023/09/07 02:35:08;;;;;;;3.72;1.77;;;23.10;73.90;;;;;;5115278;28;20495;-59
2023/09/07 02:37:35;;;;;;;3.08;1.60;;;23.10;73.90;;;;;;5115364;28;20126;-58
2023/09/07 02:40:00;;;;;;;3.83;1.98;;;23.10;73.90;;;;;;5116500;28;20062;-58
2023/09/07 02:42:26;;;;;;;3.78;1.73;;;23.10;73.90;;;;;;5116137;28;20036;-58
2023/09/07 02:44:54;;;;;;;3.38;1.70;;;23.10;73.90;;;;;;5113778;28;20042;-59
2023/09/07 02:47:20;;;;;;;3.67;1.83;;;23.10;73.90;;;;;;5114608;28;20497;-59
2023/09/07 02:49:48;;;;;;;3.35;1.70;;;23.10;73.90;;;;;;5115601;28;20130;-59
2023/09/07 02:52:14;;;;;;;3.33;1.80;;;23.10;73.90;;;;;;5131387;27;20057;-59
2023/09/07 02:54:41;;;;;;;3.97;1.70;;;23.10;73.90;;;;;;5115682;28;20127;-59
2023/09/07 02:57:07;;;;;;;3.15;1.80;;;23.10;73.90;;;;;;5116064;28;20039;-59
2023/09/07 02:59:32;;;;;;;3.67;2.00;;;23.10;73.90;;;;;;5114117;28;20112;-59
2023/09/07 03:01:58;;;;;;;3.63;1.88;;;23.10;73.90;;;;;;5114155;28;20433;-59
2023/09/07 03:04:23;;;;;;;2.83;1.67;;;23.10;73.90;;;;;;5115671;28;20040;-59
2023/09/07 03:06:49;;;;;;;4.20;1.80;;;23.10;73.90;;;;;;5114628;28;20053;-59
2023/09/07 03:09:15;;;;;;;5.47;2.17;;;23.10;73.90;;;;;;5115667;28;20036;-59
2023/09/07 03:11:40;;;;;;;3.55;1.75;;;23.10;73.90;;;;;;5113876;28;20543;-59
2023/09/07 03:14:06;;;;;;;3.53;1.45;;;23.00;73.90;;;;;;5115369;28;20540;-59
2023/09/07 03:16:31;;;;;;;2.85;1.77;;;23.10;73.90;;;;;;5115579;28;20036;-59
2023/09/07 03:18:57;;;;;;;3.13;1.63;;;23.10;73.90;;;;;;5113110;28;20036;-59
2023/09/07 03:21:28;;;;;;;2.92;1.83;;;23.00;73.80;;;;;;5115659;28;20039;-59
2023/09/07 03:23:55;;;;;;;4.18;2.00;;;23.00;73.80;;;;;;5114064;28;20035;-59
2023/09/07 03:26:21;;;;;;;3.78;2.17;;;23.00;73.80;;;;;;5114707;28;20555;-59
2023/09/07 03:28:46;;;;;;;3.90;1.90;;;23.00;73.80;;;;;;5115293;28;20067;-58
2023/09/07 03:31:12;;;;;;;3.47;1.92;;;23.00;73.80;;;;;;5096409;28;20044;-59
2023/09/07 03:33:37;;;;;;;3.72;1.90;;;23.00;73.70;;;;;;5093735;28;20038;-59
2023/09/07 03:36:03;;;;;;;3.25;2.00;;;23.00;73.70;;;;;;5095197;28;20057;-59
2023/09/07 03:38:29;;;;;;;3.90;2.05;;;23.00;73.70;;;;;;5094457;28;20381;-58
2023/09/07 03:40:55;;;;;;;2.65;1.83;;;23.00;73.70;;;;;;5093542;28;20058;-59
2023/09/07 03:43:21;;;;;;;2.92;1.85;;;23.00;73.70;;;;;;5093323;28;20131;-58
2023/09/07 03:45:46;;;;;;;3.60;1.88;;;23.00;74.00;;;;;;5094178;28;20121;-59
2023/09/07 03:48:12;;;;;;;4.03;1.98;;;23.00;73.70;;;;;;5093830;28;20048;-59
2023/09/07 03:50:38;;;;;;;4.38;2.00;;;23.00;73.60;;;;;;5094508;28;20040;-59
2023/09/07 03:53:03;;;;;;;4.88;1.77;;;23.00;73.70;;;;;;5094542;28;20519;-59
2023/09/07 03:55:29;;;;;;;3.60;1.75;;;23.00;73.70;;;;;;5109323;28;20051;-59
2023/09/07 03:57:54;;;;;;;4.28;1.80;;;23.00;73.70;;;;;;5094326;28;20027;-59
2023/09/07 04:00:20;;;;;;;3.33;1.70;;;23.00;73.70;;;;;;5093601;28;20040;-59
2023/09/07 04:02:46;;;;;;;4.80;1.80;;;23.00;73.70;;;;;;5091500;28;20047;-59
2023/09/07 04:05:14;;;;;;;3.13;1.85;;;23.00;73.60;;;;;;5093205;28;20189;-59
2023/09/07 04:07:40;;;;;;;3.25;2.10;;;23.00;73.60;;;;;;5093463;28;20040;-58
2023/09/07 04:10:06;;;;;;;3.28;1.65;;;22.90;73.60;;;;;;5091926;28;20051;-59
2023/09/07 04:12:33;;;;;;;2.45;1.83;;;23.00;73.60;;;;;;5093833;28;20082;-59
2023/09/07 04:15:00;;;;;;;2.95;1.80;;;22.90;73.60;;;;;;5092416;28;20112;-59
2023/09/07 04:17:25;;;;;;;2.72;1.92;;;22.90;73.60;;;;;;5093945;28;20050;-59
2023/09/07 04:19:51;;;;;;;2.75;1.90;;;22.90;73.50;;;;;;5093721;28;20044;-58
2023/09/07 04:22:16;;;;;;;4.05;1.92;;;23.00;73.60;;;;;;5092298;28;20036;-59
2023/09/07 04:24:42;;;;;;;3.08;1.88;;;22.90;73.50;;;;;;5093847;28;20067;-59
2023/09/07 04:27:08;;;;;;;2.95;1.70;;;22.90;73.50;;;;;;5093526;28;20399;-58
2023/09/07 04:29:39;;;;;;;3.47;1.63;;;22.90;73.50;;;;;;5091841;28;20040;-59
2023/09/07 04:32:04;;;;;;;3.83;1.80;;;22.90;73.50;;;;;;5092592;28;20044;-59
2023/09/07 04:34:30;;;;;;;3.55;2.13;;;22.90;73.50;;;;;;5093859;28;20047;-59
2023/09/07 04:36:56;;;;;;;2.75;1.52;;;22.90;73.50;;;;;;5092393;28;20052;-59
2023/09/07 04:39:21;;;;;;;2.78;1.65;;;22.90;74.10;;;;;;5092470;28;20131;-59
2023/09/07 04:41:47;;;;;;;2.45;1.73;;;22.90;73.50;;;;;;5093359;28;20123;-58
2023/09/07 04:44:12;;;;;;;3.25;1.75;;;22.90;73.40;;;;;;5092130;28;20468;-59
2023/09/07 04:46:47;;;;;;;3.10;1.75;;;22.90;73.40;;;;;;5091478;28;20079;-59
2023/09/07 04:49:12;;;;;;;3.58;2.08;;;22.90;73.40;;;;;;5091964;28;20036;-59
2023/09/07 04:51:38;;;;;;;3.05;1.83;;;22.90;73.40;;;;;;5092504;28;20118;-59
2023/09/07 04:54:04;;;;;;;3.17;1.80;;;22.90;73.40;;;;;;5093324;28;20098;-59
2023/09/07 04:56:29;;;;;;;3.45;2.03;;;22.90;73.40;;;;;;5093074;28;20578;-59
2023/09/07 04:58:55;;;;;;;3.25;1.90;;;22.90;73.40;;;;;;5090426;28;20039;-59
2023/09/07 05:01:20;;;;;;;3.65;2.03;;;22.90;73.40;;;;;;5091545;28;20052;-59
2023/09/07 05:03:46;;;;;;;2.80;1.70;;;22.90;73.40;;;;;;5092802;28;20475;-59
2023/09/07 05:06:12;;;;;;;4.00;2.13;;;22.90;73.30;;;;;;5092605;28;20040;-59
2023/09/07 05:08:40;;;;;;;2.88;1.92;;;22.80;73.30;;;;;;5092713;28;20399;-59
2023/09/07 05:11:06;;;;;;;3.08;1.90;;;22.80;73.30;;;;;;5092939;28;20483;-59
2023/09/07 05:13:32;;;;;;;3.25;2.03;;;22.90;73.30;;;;;;5092260;28;20039;-59
2023/09/07 05:15:59;;;;;;;3.47;1.90;;;22.90;73.30;;;;;;5082492;28;20450;-58
2023/09/07 05:18:24;;;;;;;2.58;1.77;;;22.90;73.30;;;;;;5070864;28;20056;-58
2023/09/07 05:20:52;;;;;;;2.38;1.80;;;22.90;73.30;;;;;;5072091;28;20044;-59
2023/09/07 05:23:19;;;;;;;3.28;1.70;;;22.80;73.30;;;;;;5072357;28;20040;-59
2023/09/07 05:25:54;;;;;;;3.42;2.17;;;22.80;73.30;;;;;;5071652;28;20049;-58
2023/09/07 05:28:20;;;;;;;4.25;2.05;;;22.80;73.30;;;;;;5071644;28;20054;-59
2023/09/07 05:30:46;;;;;;;3.38;1.92;;;22.80;73.30;;;;;;5072011;28;20049;-59
2023/09/07 05:33:12;;;;;;;4.00;1.90;;;22.80;73.30;;;;;;5071775;28;20077;-59
2023/09/07 05:35:39;;;;;;;3.28;2.08;;;22.80;73.30;;;;;;5072265;28;20476;-59
2023/09/07 05:38:05;;;;;;;3.72;1.85;;;22.80;73.30;;;;;;5071117;28;20523;-59
2023/09/07 05:40:40;;;;;;;2.88;1.73;;;22.80;73.20;;;;;;5071726;28;20048;-59
2023/09/07 05:43:05;;;;;;;3.50;1.90;;;22.80;73.20;;;;;;5072521;28;20048;-58
2023/09/07 05:45:33;;;;;;;2.88;2.33;;;22.80;73.20;;;;;;5098090;28;20050;-58
2023/09/07 05:47:59;;;;;;;3.28;2.10;;;22.80;73.30;;;;;;5093787;28;20044;-59
2023/09/07 05:50:24;;;;;;;5.28;2.53;;;22.80;73.20;;;;;;5092019;28;20043;-58
2023/09/07 05:52:50;;;;;;;3.67;2.03;;;22.90;73.20;;;;;;5073235;28;20503;-59
2023/09/07 05:55:16;;;;;;;5.35;2.40;;;22.80;73.20;;;;;;5089832;28;20131;-59
2023/09/07 05:57:41;;;;;;;4.97;2.38;;;22.90;73.20;;;;;;5091917;28;20605;-58
2023/09/07 06:00:07;;;;;;;4.28;2.03;;;22.90;73.20;;;;;;5092391;28;20040;-59
2023/09/07 06:02:33;;;;;;;3.80;2.33;;;22.90;73.20;;;;;;5088929;28;20082;-57
2023/09/07 06:04:59;;;;;;;3.83;2.40;;;22.90;73.10;;;;;;5090149;28;20080;-58
2023/09/07 06:07:24;;;;;;;3.47;2.40;;;22.90;73.00;;;;;;5090984;28;20060;-58
2023/09/07 06:09:50;;;;;;;3.90;2.35;;;22.80;73.00;;;;;;5091013;28;20055;-58
2023/09/07 06:12:15;;;;;;;4.07;2.30;;;22.90;73.00;;;;;;5092226;28;20040;-58
2023/09/07 06:14:41;;;;;;;5.45;2.20;;;22.90;73.00;;;;;;5070225;28;20073;-58
2023/09/07 06:17:06;;;;;;;5.47;2.78;;;22.90;73.00;;;;;;5071425;28;20048;-58
2023/09/07 06:19:32;;;;;;;3.40;2.33;;;22.90;73.00;;;;;;5090083;28;20519;-57
2023/09/07 06:21:58;;;;;;;4.18;2.30;;;22.90;73.10;;;;;;5090953;28;20052;-58
2023/09/07 06:24:24;;;;;;;13.43;2.70;;;22.90;73.10;;;;;;5091288;28;20040;-58
2023/09/07 06:26:49;;;;;;;5.45;2.53;;;22.90;73.10;;;;;;5091035;28;20123;-57
2023/09/07 06:29:15;;;;;;;5.32;2.50;;;22.90;73.20;;;;;;5090557;28;20086;-57
2023/09/07 06:31:41;;;;;;;7.22;2.42;;;22.90;73.10;;;;;;5090812;28;20481;-58
2023/09/07 06:34:06;;;;;;;4.45;2.53;;;22.90;73.10;;;;;;5090932;28;20047;-58
2023/09/07 06:36:32;;;;;;;5.75;2.67;;;22.90;73.00;;;;;;5090676;28;20051;-58
2023/09/07 06:38:58;;;;;;;5.10;2.83;;;22.90;73.00;;;;;;5091740;28;20048;-58
2023/09/07 06:41:24;;;;;;;5.10;2.67;;;22.90;73.00;;;;;;5091859;28;20387;-57
2023/09/07 06:43:49;;;;;;;4.07;2.85;;;22.90;73.00;;;;;;5091271;28;20471;-57
2023/09/07 06:46:15;;;;;;;5.15;2.95;;;22.90;73.00;;;;;;5093631;28;20086;-58
2023/09/07 06:48:41;;;;;;;5.93;2.97;;;22.90;72.90;;;;;;5095728;28;20040;-57
2023/09/07 06:51:08;;;;;;;3.60;2.58;;;23.00;72.90;;;;;;5094948;28;20047;-57
2023/09/07 06:53:33;;;;;;;4.25;2.60;;;22.90;72.80;;;;;;5095251;28;20051;-58
2023/09/07 06:56:02;;;;;;;4.82;2.67;;;22.90;72.80;;;;;;5095423;28;20035;-58
2023/09/07 06:58:28;;;;;;;5.28;2.80;;;23.00;72.80;;;;;;5094764;28;20079;-58
2023/09/07 07:00:58;;;;;;;5.40;3.10;;;23.00;72.80;;;;;;5094466;28;20083;-58
2023/09/07 07:03:28;;;;;;;5.18;2.60;;;23.00;72.80;;;;;;5095604;28;20028;-58
2023/09/07 07:05:55;;;;;;;5.38;2.92;;;23.00;72.90;;;;;;5094389;28;20074;-58
2023/09/07 07:08:20;;;;;;;5.32;2.80;;;23.00;72.90;;;;;;5095534;28;20119;-58
2023/09/07 07:10:46;;;;;;;3.97;2.67;;;23.00;72.90;;;;;;5094236;28;20468;-58
2023/09/07 07:13:11;;;;;;;4.15;2.80;;;23.00;72.90;;;;;;5095768;28;20043;-58
2023/09/07 07:15:37;;;;;;;4.00;2.90;;;23.10;73.00;;;;;;5094436;28;20040;-58
2023/09/07 07:18:08;;;;;;;4.90;3.00;;;23.10;73.00;;;;;;5094458;28;20047;-58
2023/09/07 07:20:37;;;;;;;5.93;3.15;;;23.00;73.00;;;;;;5094973;28;20044;-58
2023/09/07 07:23:03;;;;;;;5.00;3.00;;;23.10;73.00;;;;;;5095294;28;20044;-61
2023/09/07 07:25:31;;;;;;;4.60;3.10;;;23.10;73.00;;;;;;5094115;28;20039;-58
2023/09/07 07:27:56;;;;;;;6.60;2.85;;;23.10;73.00;;;;;;5092777;28;20050;-58
2023/09/07 07:30:22;;;;;;;8.52;2.95;;;23.10;72.90;;;;;;5101319;28;20032;-58
2023/09/07 07:32:47;;;;;;;5.55;3.53;;;23.10;72.80;;;;;;5110204;28;20078;-58
2023/09/07 07:35:14;;;;;;;6.03;3.10;;;23.10;72.70;;;;;;5098562;28;20036;-57
2023/09/07 07:37:40;;;;;;;5.63;2.95;;;23.10;72.70;;;;;;5093977;28;20060;-57
2023/09/07 07:40:07;;;;;;;6.47;3.75;;;23.10;72.70;;;;;;5093453;28;20048;-58
2023/09/07 07:42:33;;;;;;;6.93;3.00;;;23.10;72.60;;;;;;5094355;28;20040;-57
2023/09/07 07:44:58;;;;;;;7.75;3.47;;;23.10;72.50;;;;;;5094441;28;20047;-57
2023/09/07 07:47:26;;;;;;;6.80;3.42;;;23.10;72.40;;;;;;5095693;28;20529;-57
2023/09/07 07:49:52;;;;;;;5.53;3.05;;;23.10;72.30;;;;;;5094056;28;20088;-57
2023/09/07 07:52:17;;;;;;;5.50;2.92;;;23.10;72.30;;;;;;5094072;28;20036;-57
2023/09/07 07:54:43;;;;;;;7.47;3.90;;;23.10;72.30;;;;;;5093315;28;20076;-57
2023/09/07 07:57:08;;;;;;;5.75;3.28;;;23.10;72.20;;;;;;5092852;28;20052;-57
2023/09/07 07:59:34;;;;;;;9.00;3.28;;;23.10;72.20;;;;;;5094027;28;20040;-57
2023/09/07 08:01:59;;;;;;;5.43;3.10;;;23.10;72.20;;;;;;5093539;28;20112;-57
2023/09/07 08:04:25;;;;;;;4.90;3.05;;;23.10;72.20;;;;;;5094107;28;20126;-58
2023/09/07 08:06:54;;;;;;;7.80;3.40;;;23.10;72.20;;;;;;5094045;28;20040;-57
2023/09/07 08:09:19;;;;;;;6.30;3.50;;;23.10;72.20;;;;;;5093709;28;20036;-58
2023/09/07 08:11:45;;;;;;;5.07;3.15;;;23.10;72.20;;;;;;5093702;28;20047;-57
2023/09/07 08:14:11;;;;;;;6.65;3.15;;;23.10;72.10;;;;;;5093455;28;20038;-57
2023/09/07 08:16:37;;;;;;;6.63;3.42;;;23.10;72.10;;;;;;5092770;28;20060;-57
2023/09/07 08:19:03;;;;;;;6.32;3.20;;;23.10;72.10;;;;;;5093960;28;20038;-57
2023/09/07 08:21:29;;;;;;;7.38;3.42;;;23.10;72.70;;;;;;5092516;28;20062;-57
2023/09/07 08:23:55;;;;;;;6.38;3.05;;;23.10;72.10;;;;;;5093091;28;20503;-58
2023/09/07 08:26:21;;;;;;;5.47;3.15;;;23.10;72.10;;;;;;5090394;28;20090;-58
2023/09/07 08:28:46;;;;;;;7.25;3.30;;;23.10;72.20;;;;;;5092240;28;20047;-58
2023/09/07 08:31:14;;;;;;;4.80;3.42;;;23.10;72.20;;;;;;5093653;28;20044;-58
2023/09/07 08:33:40;;;;;;;5.35;3.15;;;23.20;72.40;;;;;;5093544;28;20071;-58
2023/09/07 08:36:05;;;;;;;6.18;3.15;;;23.20;72.40;;;;;;5093239;28;20476;-58
2023/09/07 08:38:31;;;;;;;5.13;3.28;;;23.20;72.30;;;;;;5092275;28;20048;-58
2023/09/07 08:41:01;;;;;;;5.22;3.33;;;23.20;72.40;;;;;;5093098;28;20491;-59
2023/09/07 08:43:27;;;;;;;6.85;3.50;;;23.20;72.40;;;;;;5092985;28;20071;-59
2023/09/07 08:46:04;;;;;;;7.50;3.20;;;23.20;72.40;;;;;;5058300;28;20422;-58
2023/09/07 08:48:29;;;;;;;5.68;3.22;;;23.20;72.50;;;;;;5092634;28;20071;-58
2023/09/07 08:50:55;;;;;;;3.85;3.03;;;23.20;72.50;;;;;;5092416;28;20083;-58
2023/09/07 08:53:20;;;;;;;6.82;3.20;;;23.30;72.50;;;;;;5092627;28;20097;-58
2023/09/07 08:55:46;;;;;;;5.95;3.70;;;23.30;72.50;;;;;;5074719;28;20032;-58
2023/09/07 08:58:12;;;;;;;5.32;3.13;;;23.30;72.50;;;;;;5107106;28;20149;-58
2023/09/07 09:00:38;;;;;;;5.03;3.33;;;23.30;72.50;;;;;;5092899;28;20040;-59
2023/09/07 09:03:04;;;;;;;5.00;3.03;;;23.30;72.50;;;;;;5092548;28;20082;-58
2023/09/07 09:05:30;;;;;;;6.07;3.20;;;23.30;72.50;;;;;;5092440;28;20043;-57
2023/09/07 09:08:04;;;;;;;7.43;3.42;;;23.30;72.50;;;;;;5091619;28;20048;-58
2023/09/07 09:10:32;;;;;;;5.35;3.20;;;23.30;72.50;;;;;;5092446;28;20040;-58
2023/09/07 09:13:01;;;;;;;4.57;3.00;;;23.30;72.50;;;;;;5092055;28;20051;-58
2023/09/07 09:15:27;;;;;;;6.93;3.20;;;23.30;72.50;;;;;;5113450;28;20104;-58
2023/09/07 09:17:53;;;;;;;5.32;3.25;;;23.30;72.50;;;;;;5112561;28;20043;-59
2023/09/07 09:20:22;;;;;;;6.30;3.55;;;23.30;72.40;;;;;;5112241;28;20039;-58
2023/09/07 09:22:53;;;;;;;4.93;3.28;;;23.30;72.50;;;;;;5094894;28;20180;-58
2023/09/07 09:25:18;;;;;;;5.00;3.53;;;23.30;72.50;;;;;;5094221;28;20040;-58
2023/09/07 09:27:44;;;;;;;7.85;3.35;;;23.30;72.40;;;;;;5096943;28;20048;-58
2023/09/07 09:30:16;;;;;;;5.93;3.42;;;23.30;72.40;;;;;;5112233;28;20444;-58
2023/09/07 09:32:43;;;;;;;5.70;3.67;;;23.40;72.40;;;;;;5101194;28;20449;-58
2023/09/07 09:35:09;;;;;;;6.32;3.55;;;23.40;72.40;;;;;;5092737;28;20488;-58
2023/09/07 09:37:43;;;;;;;5.65;3.20;;;23.30;72.30;;;;;;5105567;28;20052;-58
2023/09/07 09:40:10;;;;;;;5.45;3.53;;;23.40;72.40;;;;;;5111271;28;20052;-57
2023/09/07 09:42:36;;;;;;;5.03;3.20;;;23.40;72.40;;;;;;5111859;28;20047;-58
2023/09/07 09:45:02;;;;;;;6.07;3.22;;;23.40;72.40;;;;;;5113270;28;20139;-59
2023/09/07 09:47:31;;;;;;;5.40;3.00;;;23.40;72.30;;;;;;5110163;28;20051;-58
2023/09/07 09:49:57;;;;;;;5.35;3.33;;;23.40;72.40;;;;;;5108691;28;20100;-57
2023/09/07 09:52:24;;;;;;;5.75;3.38;;;23.40;72.30;;;;;;5092182;28;20039;-57
2023/09/07 09:54:50;;;;;;;6.13;3.17;;;23.40;72.30;;;;;;5081379;28;20038;-57
2023/09/07 09:57:15;;;;;;;5.32;3.50;;;23.40;72.40;;;;;;5080864;28;20059;-57
2023/09/07 09:59:41;;;;;;;8.10;3.45;;;23.40;72.40;;;;;;5088428;28;20028;-57
2023/09/07 10:02:07;;;;;;;6.45;3.85;;;23.40;72.30;;;;;;5089231;28;20546;-57
2023/09/07 10:04:33;;;;;;;5.18;3.40;;;23.40;72.30;;;;;;5088358;28;20051;-55
2023/09/07 10:07:01;;;;;;;5.88;3.15;;;23.40;72.30;;;;;;5088497;28;20040;-57
2023/09/07 10:09:30;;;;;;;5.18;3.35;;;23.40;72.30;;;;;;5091937;28;20040;-58
2023/09/07 10:11:57;;;;;;;6.95;3.55;;;23.50;72.30;;;;;;5090959;28;20503;-57
2023/09/07 10:14:23;;;;;;;5.13;3.50;;;23.40;72.20;;;;;;5073888;28;20048;-57
2023/09/07 10:16:51;;;;;;;6.47;3.50;;;23.50;72.30;;;;;;5091996;28;20488;-57
2023/09/07 10:19:21;;;;;;;5.57;3.20;;;23.50;72.30;;;;;;5092475;28;20052;-57
2023/09/07 10:21:47;;;;;;;5.97;3.70;;;23.50;72.30;;;;;;5093860;28;20036;-58
2023/09/07 10:24:26;;;;;;;5.20;3.70;;;23.50;72.30;;;;;;5096289;28;20047;-58
2023/09/07 10:27:21;;;;;;;5.93;3.85;;;23.50;72.20;;;;;;5094634;28;20510;-58
2023/09/07 10:29:52;;;;;;;6.18;3.78;;;23.50;72.30;;;;;;5085975;28;20073;-57
2023/09/07 10:32:18;;;;;;;5.88;3.50;;;23.50;72.30;;;;;;5105575;28;20093;-58
2023/09/07 10:34:43;;;;;;;6.97;3.67;;;23.50;72.30;;;;;;5094880;28;20123;-58
2023/09/07 10:37:15;;;;;;;9.13;3.65;;;23.50;72.30;;;;;;5096035;28;20136;-59
2023/09/07 10:39:43;;;;;;;6.88;3.70;;;23.50;72.30;;;;;;5095789;28;20051;-58
2023/09/07 10:42:09;;;;;;;8.63;3.67;;;23.50;72.30;;;;;;5095154;28;20068;-58
2023/09/07 10:44:34;;;;;;;7.40;4.10;;;23.50;72.20;;;;;;5094120;28;20576;-58
2023/09/07 10:47:00;;;;;;;6.68;3.60;;;23.50;72.20;;;;;;5116249;28;20032;-58
2023/09/07 10:49:25;;;;;;;6.10;3.90;;;23.50;72.20;;;;;;5114272;28;20100;-58
2023/09/07 10:51:51;;;;;;;5.03;3.40;;;23.50;72.10;;;;;;5115874;28;20062;-58
2023/09/07 10:54:17;;;;;;;5.80;3.90;;;23.50;72.10;;;;;;5114870;28;20343;-58
2023/09/07 10:56:46;;;;;;;4.95;3.45;;;23.50;72.10;;;;;;5114923;28;20092;-58
2023/09/07 10:59:14;;;;;;;5.47;3.30;;;23.50;72.30;;;;;;5115946;28;20181;-58
2023/09/07 11:01:40;;;;;;;5.65;3.42;;;23.50;72.00;;;;;;5115913;28;20039;-58
2023/09/07 11:04:08;;;;;;;5.32;3.70;;;23.50;72.00;;;;;;5115324;28;20407;-58
2023/09/07 11:06:33;;;;;;;6.93;3.95;;;23.50;72.00;;;;;;5116084;28;20050;-58
2023/09/07 11:09:00;;;;;;;7.22;3.70;;;23.50;72.00;;;;;;5114801;28;20040;-58
2023/09/07 11:11:26;;;;;;;6.93;3.70;;;23.50;72.00;;;;;;5114870;28;20094;-58
2023/09/07 11:13:52;;;;;;;5.35;3.58;;;23.50;71.90;;;;;;5114597;28;20403;-58
2023/09/07 11:16:18;;;;;;;6.03;3.80;;;23.50;71.90;;;;;;5094520;28;20040;-58
2023/09/07 11:18:46;;;;;;;6.00;3.60;;;23.50;71.90;;;;;;5094269;28;20514;-58
2023/09/07 11:21:11;;;;;;;7.13;3.63;;;23.50;71.90;;;;;;5094122;28;20044;-58
2023/09/07 11:23:40;;;;;;;7.18;3.55;;;23.50;71.80;;;;;;5093594;28;20423;-58
2023/09/07 11:26:07;;;;;;;6.28;3.55;;;23.50;71.90;;;;;;5098601;28;20126;-58
2023/09/07 11:28:32;;;;;;;6.03;3.72;;;23.50;71.80;;;;;;5115374;28;20165;-58
2023/09/07 11:30:58;;;;;;;5.93;3.50;;;23.50;71.90;;;;;;5113954;28;20052;-58
2023/09/07 11:33:24;;;;;;;5.30;3.90;;;23.50;71.80;;;;;;5113978;28;20043;-58
2023/09/07 11:35:50;;;;;;;6.60;4.25;;;23.60;71.90;;;;;;5115120;28;20079;-57
2023/09/07 11:38:16;;;;;;;5.45;3.85;;;23.60;71.90;;;;;;5114085;28;20062;-58
2023/09/07 11:40:44;;;;;;;5.93;3.83;;;23.60;72.00;;;;;;5106731;28;20040;-58
2023/09/07 11:43:14;;;;;;;6.22;4.05;;;23.60;72.00;;;;;;5094520;28;20119;-58
2023/09/07 11:45:43;;;;;;;6.50;3.83;;;23.60;71.90;;;;;;5093810;28;20467;-58
2023/09/07 11:48:09;;;;;;;6.68;3.78;;;23.60;71.90;;;;;;5094951;28;20073;-58
2023/09/07 11:50:35;;;;;;;6.72;3.75;;;23.60;71.90;;;;;;5094249;28;20126;-59
2023/09/07 11:53:01;;;;;;;6.80;4.10;;;23.60;72.00;;;;;;5092916;28;20479;-58
2023/09/07 11:55:26;;;;;;;6.25;4.10;;;23.60;71.90;;;;;;5094016;28;20029;-57
2023/09/07 11:57:52;;;;;;;7.10;3.90;;;23.60;72.00;;;;;;5093064;28;20486;-58
2023/09/07 12:00:18;;;;;;;5.78;3.70;;;23.60;72.00;;;;;;5093620;28;20051;-58
2023/09/07 12:02:43;;;;;;;6.72;3.95;;;23.60;72.00;;;;;;5094351;28;20044;-58
2023/09/07 12:05:09;;;;;;;5.35;3.55;;;23.60;72.00;;;;;;5094397;28;20036;-58
2023/09/07 12:07:36;;;;;;;6.70;3.85;;;23.70;72.10;;;;;;5107727;28;20047;-58
2023/09/07 12:10:01;;;;;;;6.57;4.00;;;23.70;72.00;;;;;;5114548;28;20031;-58
2023/09/07 12:12:27;;;;;;;7.53;4.28;;;23.70;72.00;;;;;;5114522;27;20519;-58
2023/09/07 12:14:53;;;;;;;4.88;3.65;;;23.70;72.00;;;;;;5112379;28;20552;-58
2023/09/07 12:17:19;;;;;;;5.38;3.95;;;23.70;72.00;;;;;;5114594;28;20040;-58
2023/09/07 12:19:45;;;;;;;7.88;3.83;;;23.70;72.00;;;;;;5114294;27;20040;-57
2023/09/07 12:22:12;;;;;;;5.97;4.13;;;23.70;72.00;;;;;;5113899;28;20052;-58
2023/09/07 12:24:37;;;;;;;6.00;3.90;;;23.70;72.00;;;;;;5112464;28;20376;-58
2023/09/07 12:27:03;;;;;;;7.38;4.07;;;23.70;71.90;;;;;;5114420;28;20047;-57
2023/09/07 12:29:29;;;;;;;6.32;4.03;;;23.70;71.90;;;;;;5099253;28;20044;-57
2023/09/07 12:31:55;;;;;;;5.22;3.72;;;23.70;72.10;;;;;;5092832;28;20051;-57
2023/09/07 12:34:20;;;;;;;5.30;4.00;;;23.70;72.10;;;;;;5092612;28;20051;-57
2023/09/07 12:36:46;;;;;;;5.57;3.75;;;23.70;72.10;;;;;;5091842;28;20052;-57
2023/09/07 12:39:12;;;;;;;7.03;4.00;;;23.70;72.10;;;;;;5093322;28;20044;-57
2023/09/07 12:41:39;;;;;;;5.43;4.18;;;23.70;72.10;;;;;;5091429;28;20052;-57
2023/09/07 12:44:04;;;;;;;6.07;3.75;;;23.70;72.10;;;;;;5091545;28;20483;-57